createdAt,value
2023-03-08T00:02:28.599Z,5.90
2023-03-08T00:05:01.292Z,6.28
2023-03-08T00:07:41.935Z,6.18
2023-03-08T00:10:18.985Z,6.43
2023-03-08T00:12:50.829Z,6.25
2023-03-08T00:15:20.466Z,6.30
2023-03-08T00:18:06.873Z,6.43
2023-03-08T00:20:36.630Z,6.45
2023-03-08T00:23:04.802Z,6.40
2023-03-08T00:25:37.006Z,4.27
2023-03-08T00:28:10.160Z,5.75
2023-03-08T00:30:41.590Z,6.22
2023-03-08T00:33:11.980Z,6.22
2023-03-08T00:36:08.700Z,6.53
2023-03-08T00:38:39.640Z,7.00
2023-03-08T00:41:09.755Z,5.90
2023-03-08T00:43:48.689Z,6.90
2023-03-08T00:46:24.817Z,6.93
2023-03-08T00:48:59.040Z,7.25
2023-03-08T00:51:30.946Z,6.78
2023-03-08T00:54:00.131Z,6.95
2023-03-08T00:59:00.170Z,6.18
2023-03-08T01:01:37.845Z,6.68
2023-03-08T01:04:10.553Z,7.05
2023-03-08T01:06:51.107Z,7.40
2023-03-08T01:09:24.390Z,6.95
2023-03-08T01:12:05.272Z,6.45
2023-03-08T01:14:47.261Z,6.63
2023-03-08T01:17:19.748Z,7.38
2023-03-08T01:20:02.425Z,6.80
2023-03-08T01:22:36.096Z,7.22
2023-03-08T01:25:24.198Z,7.50
2023-03-08T01:28:00.249Z,6.63
2023-03-08T01:30:33.026Z,6.88
2023-03-08T01:33:03.391Z,7.10
2023-03-08T01:35:34.188Z,7.32
2023-03-08T01:38:03.889Z,7.43
2023-03-08T01:40:35.827Z,7.75
2023-03-08T01:43:28.750Z,7.32
2023-03-08T01:46:17.143Z,7.38
2023-03-08T01:49:18.266Z,7.50
2023-03-08T01:52:26.501Z,7.18
2023-03-08T01:55:05.227Z,7.03
2023-03-08T01:57:45.844Z,7.45
2023-03-08T02:00:26.797Z,7.40
2023-03-08T02:03:09.761Z,7.32
2023-03-08T02:05:42.249Z,7.47
2023-03-08T02:08:17.051Z,7.78
2023-03-08T02:10:50.813Z,7.43
2023-03-08T02:13:22.110Z,7.85
2023-03-08T02:15:57.127Z,8.20
2023-03-08T02:18:27.060Z,7.43
2023-03-08T02:20:58.657Z,7.55
2023-03-08T02:23:33.630Z,7.63
2023-03-08T02:26:06.350Z,7.00
2023-03-08T02:28:39.450Z,7.57
2023-03-08T02:33:42.188Z,7.15
2023-03-08T02:36:26.932Z,7.65
2023-03-08T02:39:06.055Z,7.53
2023-03-08T02:41:48.601Z,8.27
2023-03-08T02:44:36.105Z,7.65
2023-03-08T02:47:34.446Z,7.32
2023-03-08T02:50:04.052Z,7.47
2023-03-08T02:52:34.939Z,7.57
2023-03-08T02:55:03.264Z,7.65
2023-03-08T02:57:31.559Z,7.20
2023-03-08T02:59:59.915Z,7.82
2023-03-08T03:02:29.223Z,7.38
2023-03-08T03:05:06.146Z,7.25
2023-03-08T03:07:41.737Z,8.07
2023-03-08T03:10:15.998Z,7.35
2023-03-08T03:12:45.953Z,6.93
2023-03-08T03:15:19.367Z,7.60
2023-03-08T03:17:51.839Z,7.75
2023-03-08T03:20:20.195Z,7.15
2023-03-08T03:22:49.275Z,7.72
2023-03-08T03:25:19.950Z,5.63
2023-03-08T03:27:49.699Z,7.60
2023-03-08T03:30:21.058Z,7.20
2023-03-08T03:32:51.028Z,6.90
2023-03-08T03:35:26.287Z,6.90
2023-03-08T03:37:54.922Z,6.90
2023-03-08T03:40:25.450Z,7.53
2023-03-08T03:42:59.568Z,6.93
2023-03-08T03:45:28.974Z,7.50
2023-03-08T03:47:59.253Z,6.97
2023-03-08T03:50:29.771Z,7.03
2023-03-08T03:53:06.297Z,6.68
2023-03-08T03:55:53.763Z,6.75
2023-03-08T03:58:40.271Z,6.78
2023-03-08T04:01:24.829Z,7.20
2023-03-08T04:03:56.998Z,6.60
2023-03-08T04:06:28.924Z,4.30
2023-03-08T04:09:08.602Z,6.32
2023-03-08T04:11:41.353Z,6.57
2023-03-08T04:14:15.889Z,6.95
2023-03-08T04:16:44.883Z,7.45
2023-03-08T04:19:22.407Z,7.15
2023-03-08T04:21:54.704Z,6.88
2023-03-08T04:24:28.599Z,6.75
2023-03-08T04:27:01.470Z,7.07
2023-03-08T04:29:32.928Z,6.85
2023-03-08T04:32:03.249Z,5.22
2023-03-08T04:34:43.411Z,7.75
2023-03-08T04:37:14.319Z,7.43
2023-03-08T04:42:16.272Z,6.97
2023-03-08T04:44:44.775Z,6.85
2023-03-08T04:47:18.054Z,7.22
2023-03-08T04:49:47.337Z,6.95
2023-03-08T04:52:16.131Z,7.10
2023-03-08T04:54:45.369Z,6.88
2023-03-08T04:57:23.153Z,6.95
2023-03-08T04:59:54.737Z,6.85
2023-03-08T05:02:24.400Z,7.30
2023-03-08T05:04:52.629Z,7.63
2023-03-08T05:07:21.806Z,7.18
2023-03-08T05:09:52.847Z,7.27
2023-03-08T05:12:24.886Z,7.00
2023-03-08T05:14:59.120Z,7.05
2023-03-08T05:17:28.623Z,7.00
2023-03-08T05:19:57.655Z,7.10
2023-03-08T05:22:41.035Z,6.97
2023-03-08T05:25:20.544Z,6.45
2023-03-08T05:27:49.096Z,7.15
2023-03-08T05:30:19.299Z,7.47
2023-03-08T05:32:47.350Z,6.97
2023-03-08T05:35:16.940Z,7.03
2023-03-08T05:37:45.825Z,6.93
2023-03-08T05:40:15.133Z,7.72
2023-03-08T05:42:45.305Z,7.10
2023-03-08T05:45:16.197Z,6.85
2023-03-08T05:47:46.630Z,7.28
2023-03-08T05:50:15.420Z,7.50
2023-03-08T05:52:47.757Z,5.43
2023-03-08T05:55:22.702Z,7.22
2023-03-08T05:57:52.705Z,7.17
2023-03-08T06:00:24.633Z,6.95
2023-03-08T06:02:58.598Z,7.07
2023-03-08T06:05:28.589Z,7.43
2023-03-08T06:07:59.238Z,7.65
2023-03-08T06:10:28.897Z,7.75
2023-03-08T06:12:57.511Z,8.18
2023-03-08T06:15:27.208Z,7.50
2023-03-08T06:17:59.171Z,7.78
2023-03-08T06:20:29.784Z,7.20
2023-03-08T06:22:58.515Z,7.55
2023-03-08T06:25:27.321Z,7.30
2023-03-08T06:27:58.081Z,7.43
2023-03-08T06:30:38.391Z,7.50
2023-03-08T06:33:08.994Z,6.45
2023-03-08T06:35:39.294Z,8.02
2023-03-08T06:38:07.940Z,7.38
2023-03-08T06:40:38.719Z,8.32
2023-03-08T06:43:07.001Z,8.07
2023-03-08T06:45:38.845Z,8.32
2023-03-08T06:48:10.081Z,8.43
2023-03-08T06:53:10.715Z,7.40
2023-03-08T06:55:47.574Z,8.32
2023-03-08T06:58:15.743Z,8.70
2023-03-08T07:00:45.146Z,9.05
2023-03-08T07:03:14.241Z,8.40
2023-03-08T07:05:44.076Z,7.93
2023-03-08T07:08:12.416Z,8.50
2023-03-08T07:10:40.925Z,8.65
2023-03-08T07:13:09.668Z,8.45
2023-03-08T07:15:41.104Z,8.85
2023-03-08T07:18:11.608Z,9.00
2023-03-08T07:20:39.940Z,8.27
2023-03-08T07:23:09.493Z,8.38
2023-03-08T07:25:40.555Z,9.05
2023-03-08T07:28:08.453Z,8.20
2023-03-08T07:30:37.078Z,8.63
2023-03-08T07:35:40.141Z,8.07
2023-03-08T07:38:16.315Z,8.70
2023-03-08T07:40:46.655Z,8.90
2023-03-08T07:43:15.245Z,8.45
2023-03-08T07:46:03.224Z,8.60
2023-03-08T07:48:35.140Z,8.43
2023-03-08T07:51:10.378Z,8.70
2023-03-08T07:53:42.140Z,8.25
2023-03-08T07:58:40.437Z,8.15
2023-03-08T08:01:13.200Z,8.07
2023-03-08T08:03:44.168Z,8.65
2023-03-08T08:06:13.894Z,8.38
2023-03-08T08:08:43.936Z,8.48
2023-03-08T08:11:17.737Z,7.85
2023-03-08T08:13:51.154Z,8.35
2023-03-08T08:16:20.277Z,8.05
2023-03-08T08:18:53.359Z,9.10
2023-03-08T08:21:26.472Z,8.38
2023-03-08T08:23:57.960Z,8.35
2023-03-08T08:26:26.417Z,8.45
2023-03-08T08:28:57.315Z,8.40
2023-03-08T08:31:32.779Z,8.32
2023-03-08T08:34:05.133Z,8.57
2023-03-08T08:36:36.645Z,8.15
2023-03-08T08:39:04.816Z,8.15
2023-03-08T08:41:35.597Z,7.72
2023-03-08T08:44:06.671Z,8.25
2023-03-08T08:46:36.777Z,7.80
2023-03-08T08:49:10.440Z,8.32
2023-03-08T08:51:40.171Z,9.18
2023-03-08T08:54:11.812Z,9.02
2023-03-08T08:56:43.693Z,8.43
2023-03-08T08:59:18.594Z,9.25
2023-03-08T09:01:49.045Z,9.02
2023-03-08T09:04:17.712Z,6.78
2023-03-08T09:06:53.837Z,8.65
2023-03-08T09:09:23.995Z,8.40
2023-03-08T09:11:55.795Z,8.05
2023-03-08T09:14:27.574Z,9.05
2023-03-08T09:17:00.130Z,11.57
2023-03-08T09:19:29.831Z,9.00
2023-03-08T09:22:00.735Z,8.85
2023-03-08T09:24:32.223Z,9.23
2023-03-08T09:27:01.877Z,8.52
2023-03-08T09:29:33.350Z,7.80
2023-03-08T09:32:02.030Z,7.85
2023-03-08T09:34:32.886Z,7.55
2023-03-08T09:37:01.293Z,7.35
2023-03-08T09:39:33.726Z,7.32
2023-03-08T09:42:07.544Z,7.95
2023-03-08T09:44:44.125Z,8.05
2023-03-08T09:47:19.521Z,8.23
2023-03-08T09:49:56.786Z,8.05
2023-03-08T09:52:54.742Z,7.60
2023-03-08T09:55:57.100Z,7.95
2023-03-08T09:59:05.583Z,8.63
2023-03-08T10:02:18.298Z,9.32
2023-03-08T10:05:11.779Z,7.80
2023-03-08T10:07:57.387Z,9.38
2023-03-08T10:11:13.896Z,9.63
2023-03-08T10:13:52.181Z,9.60
2023-03-08T10:16:39.636Z,8.00
2023-03-08T10:19:39.796Z,7.90
2023-03-08T10:22:27.115Z,7.97
2023-03-08T10:25:18.301Z,7.75
2023-03-08T10:27:52.004Z,7.60
2023-03-08T10:30:23.377Z,7.50
2023-03-08T10:33:00.134Z,7.22
2023-03-08T10:36:00.496Z,6.97
2023-03-08T10:38:35.505Z,6.90
2023-03-08T10:41:17.936Z,6.57
2023-03-08T10:43:53.119Z,6.95
2023-03-08T10:46:30.502Z,6.38
2023-03-08T10:49:17.976Z,6.88
2023-03-08T10:51:56.382Z,5.57
2023-03-08T10:54:29.177Z,6.35
2023-03-08T10:57:02.509Z,7.38
2023-03-08T10:59:35.640Z,7.63
2023-03-08T11:02:22.325Z,7.78
2023-03-08T11:05:00.384Z,7.30
2023-03-08T11:07:36.089Z,7.25
2023-03-08T11:10:21.205Z,7.43
2023-03-08T11:13:00.777Z,7.68
2023-03-08T11:15:35.053Z,6.72
2023-03-08T11:18:15.055Z,6.88
2023-03-08T11:20:57.086Z,6.88
2023-03-08T11:24:18.869Z,6.72
2023-03-08T11:27:27.321Z,6.40
2023-03-08T11:30:14.538Z,6.65
2023-03-08T11:33:14.086Z,7.55
2023-03-08T11:36:13.170Z,7.03
2023-03-08T11:38:43.716Z,5.75
2023-03-08T11:41:47.829Z,6.30
2023-03-08T11:45:14.864Z,6.30
2023-03-08T11:48:07.278Z,6.22
2023-03-08T11:51:54.174Z,6.07
2023-03-08T11:55:01.715Z,6.35
2023-03-08T11:57:38.114Z,6.68
2023-03-08T12:00:39.951Z,6.10
2023-03-08T12:03:37.465Z,6.25
2023-03-08T12:06:30.850Z,6.45
2023-03-08T12:09:14.009Z,5.70
2023-03-08T12:12:35.274Z,6.57
2023-03-08T12:15:43.890Z,5.88
2023-03-08T12:18:26.892Z,4.60
2023-03-08T12:21:32.791Z,5.50
2023-03-08T12:24:26.815Z,5.03
2023-03-08T12:27:51.206Z,3.90
2023-03-08T12:30:49.549Z,2.88
2023-03-08T12:33:19.724Z,2.53
2023-03-08T12:36:15.363Z,2.13
2023-03-08T12:38:48.180Z,2.28
2023-03-08T12:41:28.244Z,2.50
2023-03-08T12:44:27.808Z,2.00
2023-03-08T12:47:23.396Z,1.83
2023-03-08T12:49:57.041Z,1.50
2023-03-08T12:52:35.371Z,1.50
2023-03-08T12:55:21.947Z,1.45
2023-03-08T12:57:55.372Z,1.30
2023-03-08T13:00:27.909Z,1.27
2023-03-08T13:03:20.075Z,1.30
2023-03-08T13:05:51.440Z,1.25
2023-03-08T13:08:43.352Z,1.30
2023-03-08T13:11:16.448Z,1.47
2023-03-08T13:14:27.308Z,1.30
2023-03-08T13:16:57.611Z,1.10
2023-03-08T13:19:32.616Z,1.17
2023-03-08T13:22:21.668Z,1.42
2023-03-08T13:25:06.200Z,2.45
2023-03-08T13:28:05.505Z,2.53
2023-03-08T13:30:47.406Z,2.00
2023-03-08T13:33:46.245Z,1.70
2023-03-08T13:36:21.015Z,1.20
2023-03-08T13:39:05.381Z,0.90
2023-03-08T13:41:45.547Z,0.90
2023-03-08T13:44:28.218Z,0.82
2023-03-08T13:47:02.788Z,1.00
2023-03-08T13:49:42.407Z,0.90
2023-03-08T13:52:35.981Z,0.90
2023-03-08T13:55:09.166Z,0.80
2023-03-08T13:57:42.344Z,0.75
2023-03-08T14:00:29.017Z,0.60
2023-03-08T14:03:00.444Z,0.80
2023-03-08T14:05:32.715Z,0.68
2023-03-08T14:08:18.086Z,0.70
2023-03-08T14:11:05.570Z,0.70
2023-03-08T14:13:39.187Z,0.60
2023-03-08T14:16:09.771Z,0.80
2023-03-08T14:21:25.983Z,0.80
2023-03-08T14:24:00.826Z,0.60
2023-03-08T14:26:34.074Z,0.60
2023-03-08T14:29:19.805Z,0.60
2023-03-08T14:32:00.718Z,0.77
2023-03-08T14:34:40.355Z,1.33
2023-03-08T14:37:28.418Z,1.58
2023-03-08T14:40:36.514Z,1.20
2023-03-08T14:43:16.456Z,0.93
2023-03-08T14:45:58.656Z,1.00
2023-03-08T14:51:20.151Z,0.90
2023-03-08T14:54:02.879Z,1.33
2023-03-08T14:56:37.390Z,1.20
2023-03-08T14:59:06.085Z,1.10
2023-03-08T15:01:37.994Z,1.25
2023-03-08T15:04:24.841Z,1.10
2023-03-08T15:06:56.398Z,1.00
2023-03-08T15:09:27.127Z,0.98
2023-03-08T15:11:58.781Z,1.08
2023-03-08T15:14:30.767Z,1.10
2023-03-08T15:16:59.886Z,1.08
2023-03-08T15:19:30.510Z,0.80
2023-03-08T15:22:01.921Z,0.50
2023-03-08T15:24:32.546Z,0.60
2023-03-08T15:27:01.228Z,0.73
2023-03-08T15:29:33.881Z,0.70
2023-03-08T15:32:01.762Z,0.60
2023-03-08T15:34:30.854Z,0.68
2023-03-08T15:37:00.166Z,0.60
2023-03-08T15:39:28.789Z,0.50
2023-03-08T15:41:58.443Z,0.50
2023-03-08T15:44:26.709Z,0.50
2023-03-08T15:46:55.969Z,0.68
2023-03-08T15:49:25.403Z,0.70
2023-03-08T15:51:55.538Z,0.60
2023-03-08T15:54:26.044Z,0.90
2023-03-08T15:57:14.699Z,0.80
2023-03-08T15:59:42.842Z,0.98
2023-03-08T16:02:16.230Z,0.77
2023-03-08T16:04:49.439Z,1.15
2023-03-08T16:07:19.603Z,1.00
2023-03-08T16:09:48.611Z,1.55
2023-03-08T16:12:17.115Z,1.70
2023-03-08T16:14:50.679Z,1.95
2023-03-08T16:17:18.945Z,1.00
2023-03-08T16:19:49.106Z,1.00
2023-03-08T16:22:17.319Z,1.10
2023-03-08T16:24:46.632Z,0.80
2023-03-08T16:27:15.686Z,1.00
2023-03-08T16:29:49.858Z,0.80
2023-03-08T16:32:20.723Z,1.23
2023-03-08T16:34:51.301Z,1.00
2023-03-08T16:37:21.536Z,0.70
2023-03-08T16:39:50.551Z,0.65
2023-03-08T16:42:20.747Z,0.60
2023-03-08T16:44:54.511Z,0.70
2023-03-08T16:47:24.758Z,0.60
2023-03-08T16:49:54.114Z,0.70
2023-03-08T16:52:22.607Z,0.40
2023-03-08T16:54:52.341Z,0.70
2023-03-08T16:57:22.064Z,0.77
2023-03-08T16:59:50.446Z,0.50
2023-03-08T17:02:22.054Z,0.50
2023-03-08T17:04:52.906Z,0.55
2023-03-08T17:07:22.782Z,0.40
2023-03-08T17:09:51.720Z,0.57
2023-03-08T17:12:22.188Z,0.57
2023-03-08T17:14:50.995Z,0.60
2023-03-08T17:17:19.807Z,0.40
2023-03-08T17:19:55.905Z,0.75
2023-03-08T17:22:25.037Z,0.60
2023-03-08T17:24:54.764Z,0.60
2023-03-08T17:27:45.115Z,0.60
2023-03-08T17:30:16.507Z,0.53
2023-03-08T17:32:46.812Z,0.57
2023-03-08T17:35:15.652Z,0.40
2023-03-08T17:37:44.680Z,0.40
2023-03-08T17:40:17.512Z,0.40
2023-03-08T17:42:48.641Z,0.30
2023-03-08T17:45:18.994Z,0.50
2023-03-08T17:47:49.005Z,0.40
2023-03-08T17:50:19.594Z,0.40
2023-03-08T17:52:50.274Z,0.77
2023-03-08T17:55:20.405Z,0.50
2023-03-08T17:57:50.246Z,0.60
2023-03-08T18:00:19.760Z,0.45
2023-03-08T18:02:50.654Z,0.55
2023-03-08T18:05:19.343Z,0.60
2023-03-08T18:07:47.982Z,0.40
2023-03-08T18:10:18.719Z,0.50
2023-03-08T18:12:47.588Z,0.50
2023-03-08T18:15:17.572Z,0.40
2023-03-08T18:17:48.253Z,0.30
2023-03-08T18:20:18.779Z,0.40
2023-03-08T18:22:53.812Z,0.30
2023-03-08T18:25:22.428Z,0.40
2023-03-08T18:27:54.381Z,0.32
2023-03-08T18:30:25.147Z,0.50
2023-03-08T18:32:55.796Z,0.40
2023-03-08T18:35:24.344Z,0.50
2023-03-08T18:37:52.432Z,0.60
2023-03-08T18:40:23.543Z,0.60
2023-03-08T18:42:54.662Z,0.60
2023-03-08T18:45:24.628Z,0.80
2023-03-08T18:47:53.083Z,1.90
2023-03-08T18:50:24.006Z,1.73
2023-03-08T18:52:53.610Z,1.13
2023-03-08T18:55:22.056Z,1.60
2023-03-08T18:57:51.609Z,1.00
2023-03-08T19:00:20.110Z,0.75
2023-03-08T19:02:48.720Z,0.80
2023-03-08T19:05:17.840Z,0.77
2023-03-08T19:07:47.740Z,0.77
2023-03-08T19:10:16.492Z,0.60
2023-03-08T19:12:46.924Z,0.73
2023-03-08T19:15:16.429Z,0.80
2023-03-08T19:17:44.843Z,0.75
2023-03-08T19:20:13.664Z,0.60
2023-03-08T19:22:48.232Z,0.77
2023-03-08T19:25:20.701Z,0.98
2023-03-08T19:27:51.262Z,0.70
2023-03-08T19:32:51.720Z,0.70
2023-03-08T19:35:23.430Z,0.70
2023-03-08T19:37:53.398Z,0.60
2023-03-08T19:40:23.531Z,0.93
2023-03-08T19:42:54.792Z,0.80
2023-03-08T19:45:26.947Z,0.85
2023-03-08T19:47:56.561Z,0.90
2023-03-08T19:50:26.222Z,0.80
2023-03-08T19:52:54.550Z,0.80
2023-03-08T19:55:25.333Z,0.80
2023-03-08T19:57:54.696Z,0.90
2023-03-08T20:00:25.458Z,0.80
2023-03-08T20:02:54.677Z,0.88
2023-03-08T20:05:23.281Z,0.77
2023-03-08T20:07:53.715Z,0.60
2023-03-08T20:10:25.843Z,0.50
2023-03-08T20:12:57.886Z,0.52
2023-03-08T20:15:31.352Z,0.50
2023-03-08T20:17:59.579Z,0.50
2023-03-08T20:20:33.194Z,0.63
2023-03-08T20:23:10.394Z,0.60
2023-03-08T20:25:45.448Z,0.55
2023-03-08T20:28:24.771Z,0.80
2023-03-08T20:30:56.097Z,1.00
2023-03-08T20:33:32.731Z,0.70
2023-03-08T20:36:02.108Z,1.10
2023-03-08T20:38:35.614Z,1.10
2023-03-08T20:41:16.359Z,1.10
2023-03-08T20:43:56.269Z,1.20
2023-03-08T20:46:33.744Z,1.20
2023-03-08T20:49:12.833Z,1.10
2023-03-08T20:51:43.023Z,1.20
2023-03-08T20:54:14.530Z,1.38
2023-03-08T20:56:51.527Z,1.40
2023-03-08T20:59:38.350Z,1.20
2023-03-08T21:02:19.366Z,1.20
2023-03-08T21:04:58.327Z,1.20
2023-03-08T21:07:35.789Z,0.90
2023-03-08T21:10:09.256Z,0.90
2023-03-08T21:12:40.498Z,1.20
2023-03-08T21:15:14.773Z,1.02
2023-03-08T21:18:10.678Z,1.10
2023-03-08T21:20:39.646Z,1.08
2023-03-08T21:23:08.770Z,1.10
2023-03-08T21:25:37.622Z,1.35
2023-03-08T21:28:17.642Z,1.20
2023-03-08T21:30:49.810Z,1.30
2023-03-08T21:33:37.639Z,1.30
2023-03-08T21:36:14.099Z,1.30
2023-03-08T21:38:58.194Z,0.90
2023-03-08T21:41:38.731Z,0.90
2023-03-08T21:44:24.859Z,0.80
2023-03-08T21:47:12.286Z,0.63
2023-03-08T21:50:13.199Z,0.47
2023-03-08T21:52:58.843Z,0.63
2023-03-08T21:56:17.204Z,0.50
2023-03-08T21:58:51.235Z,0.60
2023-03-08T22:01:27.530Z,0.50
2023-03-08T22:03:57.108Z,0.80
2023-03-08T22:06:37.775Z,0.50
2023-03-08T22:09:18.570Z,0.40
2023-03-08T22:11:54.462Z,0.50
2023-03-08T22:14:27.053Z,0.70
2023-03-08T22:16:57.816Z,0.63
2023-03-08T22:19:53.922Z,0.52
2023-03-08T22:24:53.970Z,0.60
2023-03-08T22:27:23.932Z,0.73
2023-03-08T22:29:57.004Z,0.70
2023-03-08T22:32:36.540Z,0.80
2023-03-08T22:35:14.976Z,0.70
2023-03-08T22:37:47.621Z,0.85
2023-03-08T22:40:24.759Z,1.10
2023-03-08T22:43:27.957Z,0.80
2023-03-08T22:45:57.914Z,1.13
2023-03-08T22:48:41.421Z,0.73
2023-03-08T22:51:29.103Z,0.82
2023-03-08T22:54:03.658Z,0.90
2023-03-08T22:56:35.494Z,0.95
2023-03-08T22:59:06.132Z,0.90
2023-03-08T23:01:39.466Z,0.88
2023-03-08T23:04:19.052Z,1.15
2023-03-08T23:07:10.804Z,1.10
2023-03-08T23:10:04.888Z,1.10
2023-03-08T23:12:38.351Z,1.17
2023-03-08T23:15:12.147Z,1.30
2023-03-08T23:17:44.838Z,0.93
2023-03-08T23:20:36.856Z,1.17
2023-03-08T23:23:26.931Z,1.33
2023-03-08T23:29:35.524Z,1.30
2023-03-08T23:32:25.883Z,1.25
2023-03-08T23:35:01.799Z,1.10
2023-03-08T23:37:30.118Z,1.35
2023-03-08T23:39:58.326Z,1.25
2023-03-08T23:42:40.244Z,1.00
2023-03-08T23:45:11.088Z,1.30
2023-03-08T23:47:46.314Z,1.17
2023-03-08T23:50:48.641Z,1.30
2023-03-08T23:53:17.352Z,1.20
2023-03-08T23:55:53.196Z,1.15
2023-03-08T23:58:24.083Z,1.10
